Time;durP1;ratioP1;P1;durP2;ratioP2;P2;SDS_P1;SDS_P2;PMS_P1;PMS_P2;Temp;Humidity;BMP_temperature;BMP_pressure;BME280_temperature;BME280_humidity;BME280_pressure;Samples;Min_cycle;Max_cycle;Signal;HPM_P1;HPM_P2
2022/04/30 00:00:46;;;;;;;2.80;1.30;;;;;;;;;;5012973;28;20050;-51
2022/04/30 00:03:12;;;;;;;2.53;1.60;;;;;;;;;;5012969;28;20050;-46
2022/04/30 00:05:39;;;;;;;4.90;1.20;;;;;;;;;;5013297;28;20050;-45
2022/04/30 00:08:06;;;;;;;4.78;1.25;;;;;;;;;;5012881;28;20132;-44
2022/04/30 00:10:37;;;;;;;2.30;1.20;;;;;;;;;;5012798;28;20513;-48
2022/04/30 00:13:05;;;;;;;3.30;1.33;;;;;;;;;;5012791;28;20053;-48
2022/04/30 00:15:34;;;;;;;2.47;1.23;;;;;;;;;;5012672;28;20073;-48
2022/04/30 00:18:01;;;;;;;3.65;1.30;;;;;;;;;;5012733;28;20104;-48
2022/04/30 00:20:28;;;;;;;2.55;1.27;;;;;;;;;;5012692;28;20112;-50
2022/04/30 00:22:55;;;;;;;1.45;1.30;;;;;;;;;;5012681;28;20089;-44
2022/04/30 00:25:24;;;;;;;2.45;1.50;;;;;;;;;;5012444;28;20056;-47
2022/04/30 00:27:51;;;;;;;3.05;1.17;;;;;;;;;;5012632;28;20074;-43
2022/04/30 00:30:17;;;;;;;2.97;1.10;;;;;;;;;;5012613;28;20136;-49
2022/04/30 00:32:44;;;;;;;1.70;1.27;;;;;;;;;;5012657;28;20129;-47
2022/04/30 00:35:10;;;;;;;3.00;1.60;;;;;;;;;;5012571;28;20128;-51
2022/04/30 00:37:37;;;;;;;1.92;1.35;;;;;;;;;;5012582;28;20141;-51
2022/04/30 00:40:04;;;;;;;2.33;1.40;;;;;;;;;;5012544;28;20158;-52
2022/04/30 00:42:30;;;;;;;3.95;1.40;;;;;;;;;;5012509;28;20046;-51
2022/04/30 00:44:57;;;;;;;4.20;1.40;;;;;;;;;;5012429;28;20074;-48
2022/04/30 00:47:24;;;;;;;3.30;1.52;;;;;;;;;;5012432;28;20085;-51
2022/04/30 00:49:51;;;;;;;2.67;1.50;;;;;;;;;;5012421;28;20053;-45
2022/04/30 00:52:17;;;;;;;4.72;2.05;;;;;;;;;;5012366;28;20140;-48
2022/04/30 00:54:48;;;;;;;3.78;2.15;;;;;;;;;;5012466;28;20081;-52
2022/04/30 00:57:17;;;;;;;5.28;1.60;;;;;;;;;;5012334;28;20078;-50
2022/04/30 00:59:44;;;;;;;3.58;1.83;;;;;;;;;;5012224;28;20588;-53
2022/04/30 01:02:11;;;;;;;3.55;1.42;;;;;;;;;;5012166;28;20054;-50
2022/04/30 01:04:37;;;;;;;6.55;1.65;;;;;;;;;;5012399;28;20081;-48
2022/04/30 01:07:08;;;;;;;4.03;1.50;;;;;;;;;;5012249;28;20409;-51
2022/04/30 01:09:38;;;;;;;2.20;1.50;;;;;;;;;;5012352;28;20466;-50
2022/04/30 01:12:09;;;;;;;2.65;1.63;;;;;;;;;;5012089;28;20134;-47
2022/04/30 01:14:37;;;;;;;2.33;1.60;;;;;;;;;;5012295;28;20081;-44
2022/04/30 01:17:05;;;;;;;2.95;1.77;;;;;;;;;;5012222;28;20049;-47
2022/04/30 01:19:34;;;;;;;2.75;1.30;;;;;;;;;;5012131;28;20571;-48
2022/04/30 01:22:01;;;;;;;2.33;1.60;;;;;;;;;;5012121;28;20092;-49
2022/04/30 01:24:29;;;;;;;2.67;1.10;;;;;;;;;;5012167;28;20128;-49
2022/04/30 01:26:56;;;;;;;4.32;1.55;;;;;;;;;;5012130;28;20132;-46
2022/04/30 01:29:24;;;;;;;2.72;1.50;;;;;;;;;;5012084;28;20593;-46
2022/04/30 01:37:28;;;;;;;3.35;1.48;;;;;;;;;;5012264;28;20077;-43
2022/04/30 01:39:58;;;;;;;5.03;1.83;;;;;;;;;;5015570;28;20073;-42
2022/04/30 01:42:29;;;;;;;1.88;1.27;;;;;;;;;;5015603;28;20050;-48
2022/04/30 01:44:57;;;;;;;2.85;1.50;;;;;;;;;;5015460;28;20046;-42
2022/04/30 01:47:24;;;;;;;2.33;1.30;;;;;;;;;;5015381;28;20136;-46
2022/04/30 01:49:51;;;;;;;4.05;1.50;;;;;;;;;;5015515;28;20092;-52
2022/04/30 01:52:18;;;;;;;4.78;1.70;;;;;;;;;;5015223;28;20524;-53
2022/04/30 01:54:45;;;;;;;3.97;1.63;;;;;;;;;;5015062;28;20141;-49
2022/04/30 01:57:13;;;;;;;3.92;1.92;;;;;;;;;;5015002;28;20046;-42
2022/04/30 01:59:40;;;;;;;6.47;1.55;;;;;;;;;;5014945;28;20719;-47
2022/04/30 02:02:06;;;;;;;6.03;2.00;;;;;;;;;;5015086;28;20141;-44
2022/04/30 02:04:34;;;;;;;5.65;1.98;;;;;;;;;;5015091;28;20174;-44
2022/04/30 02:07:01;;;;;;;2.90;1.50;;;;;;;;;;5015020;28;20133;-47
2022/04/30 02:09:29;;;;;;;3.90;1.60;;;;;;;;;;5014997;28;20080;-49
2022/04/30 02:11:59;;;;;;;3.78;1.88;;;;;;;;;;5014939;28;20093;-54
2022/04/30 02:14:31;;;;;;;6.30;2.00;;;;;;;;;;5014754;28;20050;-55
2022/04/30 02:16:59;;;;;;;3.65;1.90;;;;;;;;;;5014810;28;20078;-49
2022/04/30 02:19:27;;;;;;;4.53;1.55;;;;;;;;;;5014883;28;20128;-50
2022/04/30 02:21:57;;;;;;;5.07;1.67;;;;;;;;;;5014757;28;20523;-51
2022/04/30 02:24:28;;;;;;;2.80;1.60;;;;;;;;;;5014933;28;20132;-55
2022/04/30 02:26:54;;;;;;;2.22;1.60;;;;;;;;;;5014583;28;20045;-54
2022/04/30 02:29:21;;;;;;;6.07;1.30;;;;;;;;;;5014631;28;20136;-51
2022/04/30 02:31:47;;;;;;;2.78;1.52;;;;;;;;;;5014608;28;20386;-47
2022/04/30 02:34:15;;;;;;;5.95;1.73;;;;;;;;;;5014542;28;20065;-45
2022/04/30 02:36:41;;;;;;;1.98;1.65;;;;;;;;;;5014505;28;20081;-52
2022/04/30 02:39:08;;;;;;;3.17;1.27;;;;;;;;;;5014469;28;20050;-48
2022/04/30 02:41:35;;;;;;;1.92;1.63;;;;;;;;;;5014224;28;20100;-45
2022/04/30 02:44:04;;;;;;;2.13;1.65;;;;;;;;;;5014588;28;20089;-48
2022/04/30 02:46:31;;;;;;;3.15;1.60;;;;;;;;;;5014174;28;20103;-48
2022/04/30 02:48:57;;;;;;;2.63;1.70;;;;;;;;;;5014215;28;20155;-52
2022/04/30 02:51:24;;;;;;;1.67;1.35;;;;;;;;;;5014122;28;20137;-48
2022/04/30 02:53:50;;;;;;;2.90;2.27;;;;;;;;;;5014075;28;20064;-47
2022/04/30 02:56:17;;;;;;;2.53;1.67;;;;;;;;;;5014009;28;20124;-50
2022/04/30 03:01:28;;;;;;;5.38;2.30;;;;;;;;;;5013821;28;20084;-48
2022/04/30 03:03:56;;;;;;;3.47;1.75;;;;;;;;;;5013840;28;20524;-46
2022/04/30 03:06:24;;;;;;;4.40;1.37;;;;;;;;;;5013827;28;20042;-50
2022/04/30 03:08:51;;;;;;;4.00;2.00;;;;;;;;;;5013684;28;20771;-49
2022/04/30 03:11:19;;;;;;;2.63;1.80;;;;;;;;;;5013861;28;20571;-49
2022/04/30 03:13:46;;;;;;;2.47;1.75;;;;;;;;;;5013678;28;20049;-53
2022/04/30 03:21:46;;;;;;;4.82;1.70;;;;;;;;;;5013639;28;20077;-49
2022/04/30 03:24:15;;;;;;;3.40;1.88;;;;;;;;;;5013550;28;20100;-53
2022/04/30 03:26:43;;;;;;;2.42;1.90;;;;;;;;;;5013663;28;20478;-55
2022/04/30 03:29:10;;;;;;;3.95;2.38;;;;;;;;;;5013493;28;20174;-54
2022/04/30 03:31:39;;;;;;;2.95;1.75;;;;;;;;;;5013464;28;20124;-52
2022/04/30 03:34:09;;;;;;;5.20;2.70;;;;;;;;;;5013537;28;20545;-53
2022/04/30 03:36:36;;;;;;;3.95;2.20;;;;;;;;;;5013323;28;20085;-56
2022/04/30 03:39:03;;;;;;;3.50;2.25;;;;;;;;;;5013147;28;20456;-56
2022/04/30 03:41:29;;;;;;;5.47;2.20;;;;;;;;;;5013355;28;20502;-50
2022/04/30 03:43:56;;;;;;;3.42;2.05;;;;;;;;;;5013134;28;20046;-55
2022/04/30 03:46:23;;;;;;;2.93;2.03;;;;;;;;;;5013057;28;20476;-56
2022/04/30 03:48:53;;;;;;;3.25;2.38;;;;;;;;;;5013138;28;20293;-56
2022/04/30 03:51:21;;;;;;;3.10;1.90;;;;;;;;;;5013160;28;20050;-56
2022/04/30 03:53:47;;;;;;;;;;;;;;;;;;5013881;28;20486;-57
2022/04/30 03:56:16;;;;;;;3.47;2.10;;;;;;;;;;5012957;28;19960;-57
2022/04/30 03:58:44;;;;;;;3.47;2.28;;;;;;;;;;5012861;28;20078;-49
2022/04/30 04:01:11;;;;;;;3.10;1.90;;;;;;;;;;5012455;28;20084;-56
2022/04/30 04:03:38;;;;;;;3.88;1.95;;;;;;;;;;5013075;28;20132;-55
2022/04/30 04:06:04;;;;;;;6.13;2.28;;;;;;;;;;5012506;28;20061;-56
2022/04/30 04:08:31;;;;;;;4.40;2.05;;;;;;;;;;5012463;28;20140;-55
2022/04/30 04:10:58;;;;;;;6.00;2.00;;;;;;;;;;5012416;28;20136;-56
2022/04/30 04:19:03;;;;;;;7.50;2.03;;;;;;;;;;5012526;28;20077;-50
2022/04/30 04:21:29;;;;;;;;;;;;;;;;;;5012793;28;20141;-53
2022/04/30 04:26:43;;;;;;;3.75;1.95;;;;;;;;;;5012280;28;20081;-50
2022/04/30 04:29:10;;;;;;;2.80;1.98;;;;;;;;;;5012302;28;20081;-53
2022/04/30 04:31:37;;;;;;;7.60;2.30;;;;;;;;;;5012117;28;20112;-47
2022/04/30 04:34:04;;;;;;;5.32;1.85;;;;;;;;;;5012302;28;20068;-50
2022/04/30 04:36:31;;;;;;;5.57;2.50;;;;;;;;;;5012239;28;20481;-50
2022/04/30 04:38:57;;;;;;;3.10;2.10;;;;;;;;;;5012178;28;20084;-51
2022/04/30 04:41:24;;;;;;;6.63;2.38;;;;;;;;;;5012188;28;20053;-46
2022/04/30 04:43:50;;;;;;;5.25;2.30;;;;;;;;;;5012222;28;20108;-45
2022/04/30 04:46:17;;;;;;;3.85;1.90;;;;;;;;;;5012017;28;20046;-49
2022/04/30 04:48:43;;;;;;;5.00;1.85;;;;;;;;;;5011976;28;20390;-51
2022/04/30 04:51:11;;;;;;;3.40;1.98;;;;;;;;;;5012073;28;20093;-46
2022/04/30 04:53:37;;;;;;;4.75;2.47;;;;;;;;;;5012000;28;20141;-47
2022/04/30 04:56:06;;;;;;;3.13;1.90;;;;;;;;;;5012148;28;20086;-52
2022/04/30 04:58:32;;;;;;;2.35;1.80;;;;;;;;;;5011758;28;20109;-51
2022/04/30 05:00:59;;;;;;;2.88;1.83;;;;;;;;;;5011931;28;20501;-48
2022/04/30 05:03:25;;;;;;;4.77;2.03;;;;;;;;;;5011765;28;20112;-45
2022/04/30 05:05:52;;;;;;;4.70;1.98;;;;;;;;;;5011752;28;20046;-48
2022/04/30 05:08:18;;;;;;;2.97;1.92;;;;;;;;;;5011820;28;20469;-46
2022/04/30 05:10:45;;;;;;;3.38;1.80;;;;;;;;;;5011856;28;20133;-46
2022/04/30 05:13:11;;;;;;;3.17;1.85;;;;;;;;;;5013254;28;20128;-53
2022/04/30 05:15:39;;;;;;;6.68;1.88;;;;;;;;;;5015703;28;20077;-55
2022/04/30 05:18:05;;;;;;;4.72;2.30;;;;;;;;;;5015530;28;20134;-51
2022/04/30 05:20:32;;;;;;;9.55;2.33;;;;;;;;;;5015460;28;20077;-53
2022/04/30 05:23:08;;;;;;;4.50;2.38;;;;;;;;;;5015362;28;20062;-49
2022/04/30 05:25:37;;;;;;;5.28;1.98;;;;;;;;;;5015465;28;20077;-49
2022/04/30 05:28:04;;;;;;;4.80;2.55;;;;;;;;;;5015152;28;20132;-54
2022/04/30 05:30:30;;;;;;;8.50;2.50;;;;;;;;;;5015146;28;20129;-44
2022/04/30 05:32:57;;;;;;;7.75;2.85;;;;;;;;;;5015280;28;20107;-48
2022/04/30 05:35:24;;;;;;;6.10;2.55;;;;;;;;;;5015148;28;20129;-58
2022/04/30 05:37:51;;;;;;;5.07;2.42;;;;;;;;;;5015247;28;20089;-56
2022/04/30 05:40:18;;;;;;;4.67;2.40;;;;;;;;;;5015184;28;20144;-55
2022/04/30 05:42:45;;;;;;;4.90;2.88;;;;;;;;;;5015119;28;20049;-56
2022/04/30 05:45:11;;;;;;;8.02;2.78;;;;;;;;;;5014915;28;20573;-54
2022/04/30 05:47:38;;;;;;;5.95;2.63;;;;;;;;;;5015295;28;20497;-57
2022/04/30 05:50:09;;;;;;;7.30;2.50;;;;;;;;;;5015010;28;20474;-51
2022/04/30 05:52:36;;;;;;;11.43;4.10;;;;;;;;;;5014866;28;20132;-50
2022/04/30 05:55:03;;;;;;;6.55;3.25;;;;;;;;;;5014697;28;20501;-49
2022/04/30 05:57:30;;;;;;;6.25;2.85;;;;;;;;;;5014715;28;20554;-52
2022/04/30 05:59:56;;;;;;;7.27;3.17;;;;;;;;;;5014436;28;20492;-51
2022/04/30 06:02:23;;;;;;;4.03;2.40;;;;;;;;;;5014497;28;20281;-54
2022/04/30 06:04:50;;;;;;;4.18;2.28;;;;;;;;;;5014763;28;20540;-47
2022/04/30 06:07:17;;;;;;;6.55;2.80;;;;;;;;;;5014519;28;20049;-46
2022/04/30 06:09:43;;;;;;;11.17;2.27;;;;;;;;;;5014698;28;20056;-46
2022/04/30 06:12:10;;;;;;;4.90;1.80;;;;;;;;;;5014696;28;20081;-47
2022/04/30 06:14:36;;;;;;;6.78;2.90;;;;;;;;;;5014466;28;20064;-51
2022/04/30 06:17:04;;;;;;;4.57;2.25;;;;;;;;;;5014392;28;20501;-47
2022/04/30 06:19:30;;;;;;;1.77;1.50;;;;;;;;;;5014361;28;20089;-49
2022/04/30 06:21:57;;;;;;;2.75;1.80;;;;;;;;;;5014466;28;20077;-46
2022/04/30 06:24:23;;;;;;;2.58;1.55;;;;;;;;;;5013698;28;20148;-48
2022/04/30 06:26:50;;;;;;;4.07;1.48;;;;;;;;;;5014435;28;20107;-56
2022/04/30 06:29:18;;;;;;;3.05;1.15;;;;;;;;;;5014075;28;20144;-51
2022/04/30 06:31:44;;;;;;;2.28;1.10;;;;;;;;;;5014116;28;20137;-48
2022/04/30 06:34:11;;;;;;;2.10;1.13;;;;;;;;;;5013932;28;20491;-50
2022/04/30 06:36:38;;;;;;;2.28;1.10;;;;;;;;;;5014114;28;20092;-49
2022/04/30 06:39:05;;;;;;;3.85;1.30;;;;;;;;;;5014120;28;20107;-48
2022/04/30 06:41:31;;;;;;;3.10;0.93;;;;;;;;;;5013941;28;20531;-48
2022/04/30 06:43:58;;;;;;;3.42;0.98;;;;;;;;;;5014083;28;20136;-45
2022/04/30 06:46:28;;;;;;;1.15;0.77;;;;;;;;;;5013997;28;20054;-42
2022/04/30 06:48:55;;;;;;;3.47;1.02;;;;;;;;;;5013740;28;20493;-57
2022/04/30 06:51:21;;;;;;;1.40;1.05;;;;;;;;;;5013759;28;20077;-56
2022/04/30 06:59:18;;;;;;;1.33;0.95;;;;;;;;;;5013514;28;20144;-56
2022/04/30 07:04:23;;;;;;;2.03;1.30;;;;;;;;;;5013484;28;20045;-41
2022/04/30 07:06:51;;;;;;;1.88;1.17;;;;;;;;;;5013536;28;20100;-51
2022/04/30 07:09:23;;;;;;;1.48;1.10;;;;;;;;;;5013388;28;20096;-51
2022/04/30 07:11:57;;;;;;;1.95;1.33;;;;;;;;;;5013322;28;20077;-52
2022/04/30 07:14:23;;;;;;;1.60;1.10;;;;;;;;;;5013267;28;20054;-47
2022/04/30 07:16:50;;;;;;;2.05;0.80;;;;;;;;;;5013356;28;20474;-50
2022/04/30 07:19:29;;;;;;;1.35;0.98;;;;;;;;;;5013188;28;20132;-53
2022/04/30 07:21:56;;;;;;;4.13;1.27;;;;;;;;;;5013258;28;20132;-55
2022/04/30 07:24:22;;;;;;;1.73;1.08;;;;;;;;;;5013150;28;20088;-48
2022/04/30 07:26:56;;;;;;;1.67;1.05;;;;;;;;;;5013194;28;20446;-46
2022/04/30 07:29:24;;;;;;;2.58;1.20;;;;;;;;;;5013155;28;20512;-51
2022/04/30 07:31:56;;;;;;;1.83;1.13;;;;;;;;;;5013095;28;20077;-50
2022/04/30 07:34:30;;;;;;;2.28;1.20;;;;;;;;;;5012961;28;20137;-47
2022/04/30 07:36:56;;;;;;;6.65;1.23;;;;;;;;;;5012312;28;20569;-47
2022/04/30 07:39:23;;;;;;;4.07;1.20;;;;;;;;;;5013005;28;20056;-48
2022/04/30 07:41:52;;;;;;;1.80;0.70;;;;;;;;;;5012825;28;20725;-49
2022/04/30 07:44:19;;;;;;;2.05;1.13;;;;;;;;;;5013026;28;20484;-44
2022/04/30 07:46:46;;;;;;;4.78;1.20;;;;;;;;;;5012697;28;20523;-44
2022/04/30 07:49:12;;;;;;;1.30;1.00;;;;;;;;;;5012639;28;20141;-45
2022/04/30 07:51:42;;;;;;;1.38;0.70;;;;;;;;;;5012779;28;20565;-45
2022/04/30 07:54:09;;;;;;;0.85;0.70;;;;;;;;;;5012611;28;20061;-44
2022/04/30 07:56:36;;;;;;;2.90;1.13;;;;;;;;;;5012379;28;20088;-46
2022/04/30 07:59:08;;;;;;;1.05;0.60;;;;;;;;;;5012212;28;20096;-47
2022/04/30 08:01:49;;;;;;;0.80;0.70;;;;;;;;;;5012627;28;20134;-46
2022/04/30 08:04:17;;;;;;;3.42;0.93;;;;;;;;;;5012420;28;20421;-46
2022/04/30 08:06:50;;;;;;;0.77;0.70;;;;;;;;;;5012512;28;20069;-51
2022/04/30 08:09:16;;;;;;;3.83;1.10;;;;;;;;;;5012506;28;20528;-45
2022/04/30 08:11:43;;;;;;;1.55;0.80;;;;;;;;;;5012530;28;20053;-46
2022/04/30 08:14:16;;;;;;;1.02;0.60;;;;;;;;;;5012413;28;20654;-46
2022/04/30 08:16:42;;;;;;;4.22;0.57;;;;;;;;;;5012482;28;20441;-58
2022/04/30 08:19:09;;;;;;;0.70;0.70;;;;;;;;;;5012289;28;20058;-53
2022/04/30 08:21:35;;;;;;;2.17;0.82;;;;;;;;;;5012179;28;20045;-52
2022/04/30 08:24:22;;;;;;;3.88;0.98;;;;;;;;;;5012224;28;20056;-49
2022/04/30 08:26:49;;;;;;;0.97;0.70;;;;;;;;;;5009263;23;20074;-61
2022/04/30 08:29:16;;;;;;;3.78;0.82;;;;;;;;;;4962606;28;20047;-60
2022/04/30 08:31:42;;;;;;;1.15;0.65;;;;;;;;;;4961610;28;20502;-60
2022/04/30 08:34:09;;;;;;;2.50;0.67;;;;;;;;;;4962204;28;20057;-60
2022/04/30 08:36:35;;;;;;;1.35;0.73;;;;;;;;;;4960941;28;20091;-62
2022/04/30 08:39:02;;;;;;;3.10;0.60;;;;;;;;;;4962445;28;20051;-61
2022/04/30 08:41:28;;;;;;;2.33;0.70;;;;;;;;;;4963735;28;20062;-61
2022/04/30 08:43:55;;;;;;;3.40;0.68;;;;;;;;;;4949456;28;20074;-50
2022/04/30 08:46:24;;;;;;;3.67;0.70;;;;;;;;;;4964515;28;20047;-49
2022/04/30 08:48:52;;;;;;;2.20;0.50;;;;;;;;;;4969109;28;20057;-51
2022/04/30 08:51:19;;;;;;;1.58;0.65;;;;;;;;;;4967088;28;20047;-50
2022/04/30 08:53:45;;;;;;;1.50;0.88;;;;;;;;;;4984310;23;20096;-60
2022/04/30 08:56:12;;;;;;;1.55;0.70;;;;;;;;;;4982257;28;20047;-60
2022/04/30 08:58:38;;;;;;;0.57;0.57;;;;;;;;;;4975105;28;20062;-59
2022/04/30 09:01:10;;;;;;;1.33;0.68;;;;;;;;;;4985662;28;20057;-60
2022/04/30 09:03:37;;;;;;;1.52;0.70;;;;;;;;;;4974455;28;20058;-59
2022/04/30 09:06:04;;;;;;;4.65;0.60;;;;;;;;;;4982485;28;20116;-60
2022/04/30 09:08:31;;;;;;;2.67;0.60;;;;;;;;;;4982919;28;20051;-49
2022/04/30 09:11:05;;;;;;;2.13;0.45;;;;;;;;;;4982383;28;20089;-46
2022/04/30 09:13:32;;;;;;;1.75;0.80;;;;;;;;;;4980520;28;20050;-44
2022/04/30 09:15:58;;;;;;;4.22;0.85;;;;;;;;;;4981554;28;20073;-49
2022/04/30 09:18:25;;;;;;;1.87;0.60;;;;;;;;;;4977732;28;20050;-45
2022/04/30 09:20:54;;;;;;;0.93;0.55;;;;;;;;;;4983514;28;20061;-47
2022/04/30 09:23:24;;;;;;;1.98;1.17;;;;;;;;;;4982888;28;20072;-45
2022/04/30 09:25:53;;;;;;;1.48;0.68;;;;;;;;;;4982881;28;20054;-49
2022/04/30 09:28:23;;;;;;;1.65;0.68;;;;;;;;;;4980633;28;20049;-49
2022/04/30 09:30:50;;;;;;;1.42;0.60;;;;;;;;;;4982897;28;20054;-49
2022/04/30 09:33:18;;;;;;;1.10;0.65;;;;;;;;;;4977311;28;20082;-53
2022/04/30 09:38:31;;;;;;;1.05;0.70;;;;;;;;;;4980153;28;20046;-54
2022/04/30 09:41:07;;;;;;;1.60;0.60;;;;;;;;;;4964668;28;20046;-52
2022/04/30 09:43:34;;;;;;;1.27;0.50;;;;;;;;;;4983687;28;20069;-54
2022/04/30 09:46:06;;;;;;;0.60;0.40;;;;;;;;;;4981448;28;20049;-57
2022/04/30 09:54:01;;;;;;;2.40;0.40;;;;;;;;;;4980398;28;20062;-51
2022/04/30 09:56:36;;;;;;;3.35;0.50;;;;;;;;;;4980859;28;20050;-51
2022/04/30 09:59:05;;;;;;;0.88;0.60;;;;;;;;;;4975359;28;20053;-48
2022/04/30 10:01:34;;;;;;;1.33;0.60;;;;;;;;;;4980351;28;20058;-50
2022/04/30 10:04:07;;;;;;;6.45;0.60;;;;;;;;;;4977595;28;20043;-52
2022/04/30 10:06:34;;;;;;;2.85;0.52;;;;;;;;;;4978079;28;20208;-50
2022/04/30 10:09:01;;;;;;;1.23;0.52;;;;;;;;;;4979662;28;20050;-53
2022/04/30 10:11:33;;;;;;;1.98;0.65;;;;;;;;;;4978623;28;20046;-51
2022/04/30 10:14:07;;;;;;;1.38;0.90;;;;;;;;;;4977699;28;20051;-53
2022/04/30 10:16:34;;;;;;;2.97;0.52;;;;;;;;;;4977599;28;20109;-55
2022/04/30 10:19:11;;;;;;;1.85;0.60;;;;;;;;;;4979847;28;20088;-51
2022/04/30 10:21:38;;;;;;;1.58;0.60;;;;;;;;;;4980866;28;20055;-46
2022/04/30 10:24:05;;;;;;;0.47;0.43;;;;;;;;;;4979117;28;20074;-60
2022/04/30 10:26:32;;;;;;;1.08;0.50;;;;;;;;;;4982062;28;20112;-60
2022/04/30 10:29:00;;;;;;;3.55;1.02;;;;;;;;;;4967443;28;20054;-61
2022/04/30 10:31:27;;;;;;;1.35;0.73;;;;;;;;;;4981774;28;20046;-61
2022/04/30 10:33:53;;;;;;;1.63;0.40;;;;;;;;;;4975218;28;20050;-61
2022/04/30 10:36:20;;;;;;;2.53;0.77;;;;;;;;;;4975583;28;20054;-61
2022/04/30 10:38:54;;;;;;;0.85;0.50;;;;;;;;;;4975889;28;20137;-61
2022/04/30 10:41:21;;;;;;;4.60;0.60;;;;;;;;;;4977438;28;20509;-46
2022/04/30 10:43:58;;;;;;;1.77;0.77;;;;;;;;;;4979591;28;20050;-53
2022/04/30 10:46:26;;;;;;;1.52;0.50;;;;;;;;;;4977031;28;20046;-52
2022/04/30 10:48:52;;;;;;;3.58;0.82;;;;;;;;;;4976916;28;20523;-53
2022/04/30 10:51:33;;;;;;;0.60;0.60;;;;;;;;;;4976894;28;20498;-52
2022/04/30 10:54:02;;;;;;;1.00;0.47;;;;;;;;;;4985703;28;20054;-48
2022/04/30 10:56:29;;;;;;;1.20;0.70;;;;;;;;;;5003351;28;20050;-50
2022/04/30 10:58:55;;;;;;;1.58;0.22;;;;;;;;;;5002396;28;20050;-61
2022/04/30 11:01:22;;;;;;;3.33;0.80;;;;;;;;;;5000693;28;20050;-54
2022/04/30 11:03:49;;;;;;;2.72;0.70;;;;;;;;;;4997615;28;20046;-61
2022/04/30 11:06:19;;;;;;;3.50;0.60;;;;;;;;;;4998221;28;20057;-61
2022/04/30 11:08:58;;;;;;;0.43;0.38;;;;;;;;;;4997322;28;20489;-61
2022/04/30 11:11:26;;;;;;;1.85;0.75;;;;;;;;;;4999054;28;20145;-61
2022/04/30 11:13:55;;;;;;;3.03;0.50;;;;;;;;;;5000839;28;20523;-60
2022/04/30 11:16:27;;;;;;;2.72;0.52;;;;;;;;;;4998429;28;20046;-61
2022/04/30 11:19:03;;;;;;;0.65;0.40;;;;;;;;;;4995938;28;20408;-60
2022/04/30 11:21:30;;;;;;;1.83;0.57;;;;;;;;;;5000466;28;20425;-60
2022/04/30 11:23:57;;;;;;;1.48;0.50;;;;;;;;;;4995224;28;20417;-60
2022/04/30 11:26:23;;;;;;;0.95;0.52;;;;;;;;;;4998754;28;20058;-60
2022/04/30 11:28:50;;;;;;;1.85;0.60;;;;;;;;;;5001210;28;20050;-61
2022/04/30 11:31:19;;;;;;;1.50;0.60;;;;;;;;;;5000468;28;20050;-60
2022/04/30 11:33:45;;;;;;;3.10;0.77;;;;;;;;;;4999682;28;20438;-60
2022/04/30 11:36:12;;;;;;;0.90;0.52;;;;;;;;;;4996729;28;20058;-53
2022/04/30 11:38:40;;;;;;;1.33;0.65;;;;;;;;;;4998966;28;20046;-60
2022/04/30 11:41:09;;;;;;;1.00;0.45;;;;;;;;;;4997361;28;20050;-61
2022/04/30 11:43:36;;;;;;;1.25;0.70;;;;;;;;;;4999721;28;20057;-60
2022/04/30 11:46:04;;;;;;;0.57;0.47;;;;;;;;;;4998077;28;20053;-61
2022/04/30 11:48:32;;;;;;;1.90;0.85;;;;;;;;;;4998758;28;20066;-60
2022/04/30 11:50:58;;;;;;;6.55;0.90;;;;;;;;;;4998042;28;20104;-60
2022/04/30 11:53:25;;;;;;;0.57;0.45;;;;;;;;;;4993968;28;20050;-61
2022/04/30 11:55:52;;;;;;;1.60;0.55;;;;;;;;;;5003737;28;20046;-57
2022/04/30 11:58:18;;;;;;;1.53;0.50;;;;;;;;;;4999986;28;20065;-57
2022/04/30 12:01:05;;;;;;;0.77;0.50;;;;;;;;;;4996019;28;20512;-58
2022/04/30 12:03:31;;;;;;;4.55;0.90;;;;;;;;;;4993035;28;20053;-58
2022/04/30 12:05:59;;;;;;;1.60;0.60;;;;;;;;;;4995785;28;20058;-57
2022/04/30 12:08:27;;;;;;;0.65;0.45;;;;;;;;;;4991790;28;20630;-56
2022/04/30 12:10:55;;;;;;;0.73;0.60;;;;;;;;;;4995742;28;20061;-56
2022/04/30 12:13:25;;;;;;;0.82;0.55;;;;;;;;;;4988808;28;20042;-49
2022/04/30 12:16:03;;;;;;;1.13;0.40;;;;;;;;;;5002059;23;20517;-51
2022/04/30 12:26:43;;;;;;;0.98;0.65;;;;;;;;;;4995295;23;20152;-56
2022/04/30 12:29:18;;;;;;;4.05;0.70;;;;;;;;;;4973644;28;20153;-52
2022/04/30 12:31:51;;;;;;;1.05;0.47;;;;;;;;;;4975767;28;20137;-51
2022/04/30 12:34:18;;;;;;;2.88;0.70;;;;;;;;;;4980524;28;20054;-58
2022/04/30 12:36:52;;;;;;;2.25;0.52;;;;;;;;;;4979132;28;20165;-55
2022/04/30 12:39:19;;;;;;;1.17;0.50;;;;;;;;;;4981038;28;20909;-55
2022/04/30 12:41:45;;;;;;;1.43;0.80;;;;;;;;;;4980219;28;20136;-57
2022/04/30 12:44:12;;;;;;;1.38;0.70;;;;;;;;;;4982475;28;20509;-56
2022/04/30 12:46:41;;;;;;;2.83;0.63;;;;;;;;;;4980549;28;20089;-54
2022/04/30 12:49:08;;;;;;;1.73;0.60;;;;;;;;;;4974969;28;20820;-57
2022/04/30 12:51:34;;;;;;;1.23;0.55;;;;;;;;;;4980862;28;20093;-56
2022/04/30 12:54:01;;;;;;;0.55;0.50;;;;;;;;;;4980914;28;20057;-57
2022/04/30 12:56:27;;;;;;;0.50;0.40;;;;;;;;;;4980493;28;20074;-57
2022/04/30 12:58:54;;;;;;;0.93;0.50;;;;;;;;;;4974975;28;20454;-59
2022/04/30 13:01:21;;;;;;;2.33;0.40;;;;;;;;;;4979474;28;20051;-58
2022/04/30 13:03:48;;;;;;;0.50;0.38;;;;;;;;;;4981145;28;20392;-57
2022/04/30 13:06:15;;;;;;;;;;;;;;;;;;4981425;28;20077;-57
2022/04/30 13:14:13;;;;;;;1.13;0.60;;;;;;;;;;4978051;28;20109;-56
2022/04/30 13:16:40;;;;;;;1.60;0.60;;;;;;;;;;4983050;28;20089;-57
2022/04/30 13:19:06;;;;;;;2.00;0.63;;;;;;;;;;4984816;28;20043;-57
2022/04/30 13:21:33;;;;;;;1.63;0.63;;;;;;;;;;4983880;28;20133;-57
2022/04/30 13:24:00;;;;;;;0.68;0.43;;;;;;;;;;4984331;28;20145;-59
2022/04/30 13:26:26;;;;;;;2.15;0.57;;;;;;;;;;4985304;28;20082;-58
2022/04/30 13:28:53;;;;;;;1.70;0.70;;;;;;;;;;4982623;28;20126;-57
2022/04/30 13:31:19;;;;;;;1.60;0.57;;;;;;;;;;4986655;28;20376;-57
2022/04/30 13:33:46;;;;;;;0.75;0.50;;;;;;;;;;4983588;28;20059;-58
2022/04/30 13:36:13;;;;;;;1.38;0.43;;;;;;;;;;4986109;28;20039;-55
2022/04/30 13:38:40;;;;;;;0.70;0.60;;;;;;;;;;4989062;28;20136;-53
2022/04/30 13:41:07;;;;;;;1.73;0.77;;;;;;;;;;4988636;28;20540;-55
2022/04/30 13:43:34;;;;;;;2.37;0.43;;;;;;;;;;4985154;28;20141;-58
2022/04/30 13:46:00;;;;;;;4.03;0.70;;;;;;;;;;4986676;28;20707;-58
2022/04/30 13:48:27;;;;;;;4.30;0.75;;;;;;;;;;4987001;28;20046;-54
2022/04/30 13:50:53;;;;;;;1.20;0.38;;;;;;;;;;4986505;28;20560;-58
2022/04/30 13:53:20;;;;;;;1.50;0.60;;;;;;;;;;4985912;28;20105;-54
2022/04/30 13:55:46;;;;;;;1.38;0.60;;;;;;;;;;4985208;28;20159;-57
2022/04/30 13:58:13;;;;;;;1.20;0.40;;;;;;;;;;4988979;28;20042;-58
2022/04/30 14:00:40;;;;;;;1.23;0.60;;;;;;;;;;4981875;28;20060;-56
2022/04/30 14:03:06;;;;;;;1.52;0.60;;;;;;;;;;4984741;28;20058;-55
2022/04/30 14:05:33;;;;;;;1.10;0.68;;;;;;;;;;4983733;28;20158;-58
2022/04/30 14:07:59;;;;;;;1.13;0.57;;;;;;;;;;4983376;28;20158;-58
2022/04/30 14:10:29;;;;;;;1.17;0.40;;;;;;;;;;4976200;23;20046;-59
2022/04/30 14:14:55;;;;;;;1.67;0.65;;;;;;;;;;4959053;28;20134;-59
2022/04/30 14:15:43;;;;;;;2.72;0.57;;;;;;;;;;4976135;28;20125;-59
2022/04/30 14:18:19;;;;;;;2.30;0.50;;;;;;;;;;4967829;28;20039;-59
2022/04/30 14:20:46;;;;;;;0.73;0.40;;;;;;;;;;4967322;28;20061;-59
2022/04/30 14:23:12;;;;;;;3.53;0.60;;;;;;;;;;4975516;28;20046;-59
2022/04/30 14:25:39;;;;;;;1.92;0.85;;;;;;;;;;4974979;28;20146;-60
2022/04/30 14:28:06;;;;;;;1.77;0.80;;;;;;;;;;4976156;28;20085;-59
2022/04/30 14:30:34;;;;;;;0.50;0.47;;;;;;;;;;4967990;28;20086;-58
2022/04/30 14:33:04;;;;;;;2.28;0.73;;;;;;;;;;4970550;28;20490;-59
2022/04/30 14:35:31;;;;;;;1.10;0.45;;;;;;;;;;4964732;28;20491;-58
2022/04/30 14:37:59;;;;;;;1.30;0.70;;;;;;;;;;4960358;28;20057;-58
2022/04/30 14:40:28;;;;;;;0.70;0.43;;;;;;;;;;4958356;28;20584;-59
2022/04/30 14:42:55;;;;;;;5.82;0.73;;;;;;;;;;4966628;28;20477;-59
2022/04/30 14:45:23;;;;;;;2.80;0.50;;;;;;;;;;4974494;28;20060;-60
2022/04/30 14:47:49;;;;;;;3.42;0.50;;;;;;;;;;4975435;28;20055;-60
2022/04/30 14:50:15;;;;;;;3.97;0.70;;;;;;;;;;4963430;28;20051;-60
2022/04/30 14:52:43;;;;;;;1.35;0.40;;;;;;;;;;4970527;28;20597;-60
2022/04/30 14:55:09;;;;;;;2.42;0.60;;;;;;;;;;4968134;28;20499;-60
2022/04/30 14:57:36;;;;;;;2.50;0.52;;;;;;;;;;4969245;28;20141;-60
2022/04/30 15:00:05;;;;;;;2.60;0.70;;;;;;;;;;4966486;28;20054;-60
2022/04/30 15:02:31;;;;;;;1.73;0.60;;;;;;;;;;4969463;28;20161;-62
2022/04/30 15:04:57;;;;;;;0.85;0.50;;;;;;;;;;4970454;28;20055;-59
2022/04/30 15:07:24;;;;;;;0.90;0.63;;;;;;;;;;4972158;28;20138;-60
2022/04/30 15:09:50;;;;;;;1.65;0.70;;;;;;;;;;4974065;28;20141;-60
2022/04/30 15:12:21;;;;;;;0.90;0.77;;;;;;;;;;4981423;28;20575;-60
2022/04/30 15:14:47;;;;;;;3.47;0.60;;;;;;;;;;4984422;28;20061;-60
2022/04/30 15:17:14;;;;;;;1.27;0.70;;;;;;;;;;4986580;28;20058;-60
2022/04/30 15:19:40;;;;;;;2.85;0.80;;;;;;;;;;4983493;28;20991;-60
2022/04/30 15:22:08;;;;;;;0.90;0.50;;;;;;;;;;4986006;28;20145;-62
2022/04/30 15:24:35;;;;;;;0.85;0.55;;;;;;;;;;4987483;28;20098;-64
2022/04/30 15:27:01;;;;;;;1.00;0.77;;;;;;;;;;4984204;28;20054;-63
2022/04/30 15:29:28;;;;;;;1.73;0.70;;;;;;;;;;4982406;28;20081;-62
2022/04/30 15:31:58;;;;;;;4.50;0.95;;;;;;;;;;4983464;28;20132;-63
2022/04/30 15:34:25;;;;;;;4.13;1.05;;;;;;;;;;4985689;28;20137;-62
2022/04/30 15:36:52;;;;;;;2.28;0.80;;;;;;;;;;4987857;28;20577;-62
2022/04/30 15:39:18;;;;;;;3.83;0.95;;;;;;;;;;4982877;28;20137;-61